sensor_id;sensor_type;location;lat;lon;timestamp;temperature;humidity
38788;DHT22;24536;45.488;12.238;2022-07-04T00:00:56;30.20;71.00
38788;DHT22;24536;45.488;12.238;2022-07-04T00:03:25;30.20;70.90
38788;DHT22;24536;45.488;12.238;2022-07-04T00:05:51;30.20;70.90
38788;DHT22;24536;45.488;12.238;2022-07-04T00:08:16;30.20;71.10
38788;DHT22;24536;45.488;12.238;2022-07-04T00:10:42;30.30;71.20
38788;DHT22;24536;45.488;12.238;2022-07-04T00:13:08;30.30;71.00
38788;DHT22;24536;45.488;12.238;2022-07-04T00:15:33;30.30;71.00
38788;DHT22;24536;45.488;12.238;2022-07-04T00:17:59;30.30;71.00
38788;DHT22;24536;45.488;12.238;2022-07-04T00:20:25;30.20;71.00
38788;DHT22;24536;45.488;12.238;2022-07-04T00:22:50;30.20;71.10
38788;DHT22;24536;45.488;12.238;2022-07-04T00:25:16;30.20;71.10
38788;DHT22;24536;45.488;12.238;2022-07-04T00:27:42;30.20;71.00
38788;DHT22;24536;45.488;12.238;2022-07-04T00:30:08;30.20;70.60
38788;DHT22;24536;45.488;12.238;2022-07-04T00:32:34;30.20;70.50
38788;DHT22;24536;45.488;12.238;2022-07-04T00:34:59;30.20;70.30
38788;DHT22;24536;45.488;12.238;2022-07-04T00:37:25;30.20;70.20
38788;DHT22;24536;45.488;12.238;2022-07-04T00:39:51;30.20;70.40
38788;DHT22;24536;45.488;12.238;2022-07-04T00:42:16;30.20;70.40
38788;DHT22;24536;45.488;12.238;2022-07-04T00:44:42;30.20;70.40
38788;DHT22;24536;45.488;12.238;2022-07-04T00:47:08;30.00;70.00
38788;DHT22;24536;45.488;12.238;2022-07-04T00:49:34;29.90;70.10
38788;DHT22;24536;45.488;12.238;2022-07-04T00:52:00;29.90;70.30
38788;DHT22;24536;45.488;12.238;2022-07-04T00:54:28;29.80;70.70
38788;DHT22;24536;45.488;12.238;2022-07-04T00:56:56;29.70;70.80
38788;DHT22;24536;45.488;12.238;2022-07-04T00:59:22;29.60;71.30
38788;DHT22;24536;45.488;12.238;2022-07-04T01:01:48;29.50;71.90
38788;DHT22;24536;45.488;12.238;2022-07-04T01:04:14;29.40;72.30
38788;DHT22;24536;45.488;12.238;2022-07-04T01:06:40;29.30;71.80
38788;DHT22;24536;45.488;12.238;2022-07-04T01:09:06;29.40;72.30
38788;DHT22;24536;45.488;12.238;2022-07-04T01:11:31;29.40;72.30
38788;DHT22;24536;45.488;12.238;2022-07-04T01:13:58;29.50;72.00
38788;DHT22;24536;45.488;12.238;2022-07-04T01:16:25;29.50;71.20
38788;DHT22;24536;45.488;12.238;2022-07-04T01:18:52;29.60;70.80
38788;DHT22;24536;45.488;12.238;2022-07-04T01:21:19;29.50;70.20
38788;DHT22;24536;45.488;12.238;2022-07-04T01:23:45;29.50;69.80
38788;DHT22;24536;45.488;12.238;2022-07-04T01:26:10;29.40;69.00
38788;DHT22;24536;45.488;12.238;2022-07-04T01:28:37;29.30;68.70
38788;DHT22;24536;45.488;12.238;2022-07-04T01:31:03;29.20;69.00
38788;DHT22;24536;45.488;12.238;2022-07-04T01:33:29;29.00;69.10
38788;DHT22;24536;45.488;12.238;2022-07-04T01:35:54;28.90;69.60
38788;DHT22;24536;45.488;12.238;2022-07-04T01:38:20;28.90;69.80
38788;DHT22;24536;45.488;12.238;2022-07-04T01:40:46;28.80;70.40
38788;DHT22;24536;45.488;12.238;2022-07-04T01:43:12;28.70;70.80
38788;DHT22;24536;45.488;12.238;2022-07-04T01:45:37;28.70;70.30
38788;DHT22;24536;45.488;12.238;2022-07-04T01:48:08;28.80;70.40
38788;DHT22;24536;45.488;12.238;2022-07-04T01:50:34;28.90;70.10
38788;DHT22;24536;45.488;12.238;2022-07-04T01:53:00;28.90;69.70
38788;DHT22;24536;45.488;12.238;2022-07-04T01:55:27;28.90;69.40
38788;DHT22;24536;45.488;12.238;2022-07-04T01:57:53;29.00;69.20
38788;DHT22;24536;45.488;12.238;2022-07-04T02:00:18;29.00;68.90
38788;DHT22;24536;45.488;12.238;2022-07-04T02:03:02;29.00;68.60
38788;DHT22;24536;45.488;12.238;2022-07-04T02:05:28;29.00;68.70
38788;DHT22;24536;45.488;12.238;2022-07-04T02:07:54;29.00;68.60
38788;DHT22;24536;45.488;12.238;2022-07-04T02:10:20;29.10;68.30
38788;DHT22;24536;45.488;12.238;2022-07-04T02:12:46;29.10;68.10
38788;DHT22;24536;45.488;12.238;2022-07-04T02:15:32;29.10;68.00
38788;DHT22;24536;45.488;12.238;2022-07-04T02:17:59;29.10;68.10
38788;DHT22;24536;45.488;12.238;2022-07-04T02:20:25;29.10;68.40
38788;DHT22;24536;45.488;12.238;2022-07-04T02:22:51;29.10;68.50
38788;DHT22;24536;45.488;12.238;2022-07-04T02:25:17;29.10;68.60
38788;DHT22;24536;45.488;12.238;2022-07-04T02:27:43;29.10;68.80
38788;DHT22;24536;45.488;12.238;2022-07-04T02:30:09;29.10;68.90
38788;DHT22;24536;45.488;12.238;2022-07-04T02:32:35;29.10;68.90
38788;DHT22;24536;45.488;12.238;2022-07-04T02:35:02;29.10;68.80
38788;DHT22;24536;45.488;12.238;2022-07-04T02:37:28;29.00;68.70
38788;DHT22;24536;45.488;12.238;2022-07-04T02:39:53;29.00;68.90
38788;DHT22;24536;45.488;12.238;2022-07-04T02:42:19;29.00;69.30
38788;DHT22;24536;45.488;12.238;2022-07-04T02:44:45;28.90;69.20
38788;DHT22;24536;45.488;12.238;2022-07-04T02:47:11;28.80;69.30
38788;DHT22;24536;45.488;12.238;2022-07-04T02:49:36;28.70;69.40
38788;DHT22;24536;45.488;12.238;2022-07-04T02:52:02;28.60;70.00
38788;DHT22;24536;45.488;12.238;2022-07-04T02:54:28;28.60;70.30
38788;DHT22;24536;45.488;12.238;2022-07-04T02:56:54;28.60;70.80
38788;DHT22;24536;45.488;12.238;2022-07-04T02:59:19;28.50;70.60
38788;DHT22;24536;45.488;12.238;2022-07-04T03:01:45;28.50;70.80
38788;DHT22;24536;45.488;12.238;2022-07-04T03:04:11;28.50;71.10
38788;DHT22;24536;45.488;12.238;2022-07-04T03:06:36;28.60;71.30
38788;DHT22;24536;45.488;12.238;2022-07-04T03:09:02;28.60;71.50
38788;DHT22;24536;45.488;12.238;2022-07-04T03:11:28;28.60;71.50
38788;DHT22;24536;45.488;12.238;2022-07-04T03:13:54;28.60;71.60
38788;DHT22;24536;45.488;12.238;2022-07-04T03:16:19;28.60;71.70
38788;DHT22;24536;45.488;12.238;2022-07-04T03:18:45;28.60;71.80
38788;DHT22;24536;45.488;12.238;2022-07-04T03:21:11;28.60;72.10
38788;DHT22;24536;45.488;12.238;2022-07-04T03:23:36;28.60;72.20
38788;DHT22;24536;45.488;12.238;2022-07-04T03:26:02;28.70;72.50
38788;DHT22;24536;45.488;12.238;2022-07-04T03:28:28;28.60;72.80
38788;DHT22;24536;45.488;12.238;2022-07-04T03:30:54;28.60;72.90
38788;DHT22;24536;45.488;12.238;2022-07-04T03:33:19;28.60;73.20
38788;DHT22;24536;45.488;12.238;2022-07-04T03:35:46;28.50;73.30
38788;DHT22;24536;45.488;12.238;2022-07-04T03:38:11;28.50;73.40
38788;DHT22;24536;45.488;12.238;2022-07-04T03:40:37;28.50;73.50
38788;DHT22;24536;45.488;12.238;2022-07-04T03:43:04;28.50;73.70
38788;DHT22;24536;45.488;12.238;2022-07-04T03:45:31;28.50;73.80
38788;DHT22;24536;45.488;12.238;2022-07-04T03:47:57;28.50;73.90
38788;DHT22;24536;45.488;12.238;2022-07-04T03:50:23;28.50;74.20
38788;DHT22;24536;45.488;12.238;2022-07-04T03:52:49;28.50;74.10
38788;DHT22;24536;45.488;12.238;2022-07-04T03:55:15;28.50;74.20
38788;DHT22;24536;45.488;12.238;2022-07-04T03:57:40;28.50;74.20
38788;DHT22;24536;45.488;12.238;2022-07-04T04:00:07;28.50;74.20
38788;DHT22;24536;45.488;12.238;2022-07-04T04:02:33;28.50;74.20
38788;DHT22;24536;45.488;12.238;2022-07-04T04:04:59;28.50;74.20
38788;DHT22;24536;45.488;12.238;2022-07-04T04:07:43;28.50;74.00
38788;DHT22;24536;45.488;12.238;2022-07-04T04:10:09;28.50;73.70
38788;DHT22;24536;45.488;12.238;2022-07-04T04:12:35;28.40;73.50
38788;DHT22;24536;45.488;12.238;2022-07-04T04:15:01;28.40;73.50
38788;DHT22;24536;45.488;12.238;2022-07-04T04:17:26;28.40;73.30
38788;DHT22;24536;45.488;12.238;2022-07-04T04:19:52;28.40;73.20
38788;DHT22;24536;45.488;12.238;2022-07-04T04:22:18;28.30;73.10
38788;DHT22;24536;45.488;12.238;2022-07-04T04:24:43;28.40;73.10
38788;DHT22;24536;45.488;12.238;2022-07-04T04:27:09;28.40;73.20
38788;DHT22;24536;45.488;12.238;2022-07-04T04:29:35;28.30;73.10
38788;DHT22;24536;45.488;12.238;2022-07-04T04:32:00;28.30;73.30
38788;DHT22;24536;45.488;12.238;2022-07-04T04:34:32;28.40;73.30
38788;DHT22;24536;45.488;12.238;2022-07-04T04:36:59;28.40;73.40
38788;DHT22;24536;45.488;12.238;2022-07-04T04:39:25;28.30;73.20
38788;DHT22;24536;45.488;12.238;2022-07-04T04:41:51;28.40;73.10
38788;DHT22;24536;45.488;12.238;2022-07-04T04:44:16;28.40;72.90
38788;DHT22;24536;45.488;12.238;2022-07-04T04:46:42;28.30;72.70
38788;DHT22;24536;45.488;12.238;2022-07-04T04:49:08;28.30;72.70
38788;DHT22;24536;45.488;12.238;2022-07-04T04:51:33;28.30;72.70
38788;DHT22;24536;45.488;12.238;2022-07-04T04:53:59;28.30;72.60
38788;DHT22;24536;45.488;12.238;2022-07-04T04:56:25;28.30;72.80
38788;DHT22;24536;45.488;12.238;2022-07-04T04:58:50;28.30;72.60
38788;DHT22;24536;45.488;12.238;2022-07-04T05:01:16;28.30;72.60
38788;DHT22;24536;45.488;12.238;2022-07-04T05:03:42;28.30;72.50
38788;DHT22;24536;45.488;12.238;2022-07-04T05:06:09;28.30;72.40
38788;DHT22;24536;45.488;12.238;2022-07-04T05:08:35;28.30;72.20
38788;DHT22;24536;45.488;12.238;2022-07-04T05:11:06;28.30;72.20
38788;DHT22;24536;45.488;12.238;2022-07-04T05:13:32;28.40;72.30
38788;DHT22;24536;45.488;12.238;2022-07-04T05:15:58;28.30;72.20
38788;DHT22;24536;45.488;12.238;2022-07-04T05:18:24;28.30;72.50
38788;DHT22;24536;45.488;12.238;2022-07-04T05:20:49;28.30;72.70
38788;DHT22;24536;45.488;12.238;2022-07-04T05:23:15;28.10;72.20
38788;DHT22;24536;45.488;12.238;2022-07-04T05:25:41;28.10;72.20
38788;DHT22;24536;45.488;12.238;2022-07-04T05:28:06;28.00;72.00
38788;DHT22;24536;45.488;12.238;2022-07-04T05:30:32;27.90;72.30
38788;DHT22;24536;45.488;12.238;2022-07-04T05:33:06;28.00;73.00
38788;DHT22;24536;45.488;12.238;2022-07-04T05:35:41;27.90;72.80
38788;DHT22;24536;45.488;12.238;2022-07-04T05:38:06;27.90;72.90
38788;DHT22;24536;45.488;12.238;2022-07-04T05:40:49;28.00;72.80
38788;DHT22;24536;45.488;12.238;2022-07-04T05:43:38;28.00;72.80
38788;DHT22;24536;45.488;12.238;2022-07-04T05:46:03;28.00;72.40
38788;DHT22;24536;45.488;12.238;2022-07-04T05:48:29;28.10;72.30
38788;DHT22;24536;45.488;12.238;2022-07-04T05:50:55;28.10;71.60
38788;DHT22;24536;45.488;12.238;2022-07-04T05:53:21;28.20;71.30
38788;DHT22;24536;45.488;12.238;2022-07-04T05:55:46;28.20;70.80
38788;DHT22;24536;45.488;12.238;2022-07-04T05:58:12;28.30;70.20
38788;DHT22;24536;45.488;12.238;2022-07-04T06:00:39;28.30;69.30
38788;DHT22;24536;45.488;12.238;2022-07-04T06:03:05;28.40;68.80
38788;DHT22;24536;45.488;12.238;2022-07-04T06:05:32;28.40;68.20
38788;DHT22;24536;45.488;12.238;2022-07-04T06:07:57;28.40;68.10
38788;DHT22;24536;45.488;12.238;2022-07-04T06:10:23;28.50;68.00
38788;DHT22;24536;45.488;12.238;2022-07-04T06:12:49;28.50;67.50
38788;DHT22;24536;45.488;12.238;2022-07-04T06:15:14;28.60;67.10
38788;DHT22;24536;45.488;12.238;2022-07-04T06:17:41;28.60;67.00
38788;DHT22;24536;45.488;12.238;2022-07-04T06:20:07;28.70;66.70
38788;DHT22;24536;45.488;12.238;2022-07-04T06:22:44;28.80;66.10
38788;DHT22;24536;45.488;12.238;2022-07-04T06:25:16;28.80;65.90
38788;DHT22;24536;45.488;12.238;2022-07-04T06:27:44;28.80;65.40
38788;DHT22;24536;45.488;12.238;2022-07-04T06:30:10;28.90;65.50
38788;DHT22;24536;45.488;12.238;2022-07-04T06:35:12;29.00;65.40
38788;DHT22;24536;45.488;12.238;2022-07-04T06:37:56;29.10;65.20
38788;DHT22;24536;45.488;12.238;2022-07-04T06:40:23;29.20;65.30
38788;DHT22;24536;45.488;12.238;2022-07-04T06:42:49;29.20;65.20
38788;DHT22;24536;45.488;12.238;2022-07-04T06:45:15;29.30;65.20
38788;DHT22;24536;45.488;12.238;2022-07-04T06:47:41;29.30;65.00
38788;DHT22;24536;45.488;12.238;2022-07-04T06:50:08;29.30;64.80
38788;DHT22;24536;45.488;12.238;2022-07-04T06:52:34;29.40;64.80
38788;DHT22;24536;45.488;12.238;2022-07-04T06:54:59;29.40;64.50
38788;DHT22;24536;45.488;12.238;2022-07-04T06:57:25;29.50;64.30
38788;DHT22;24536;45.488;12.238;2022-07-04T06:59:51;29.50;63.80
38788;DHT22;24536;45.488;12.238;2022-07-04T07:02:18;29.60;64.00
38788;DHT22;24536;45.488;12.238;2022-07-04T07:04:44;29.70;64.00
38788;DHT22;24536;45.488;12.238;2022-07-04T07:07:09;29.70;63.40
38788;DHT22;24536;45.488;12.238;2022-07-04T07:09:35;29.80;63.10
38788;DHT22;24536;45.488;12.238;2022-07-04T07:12:01;29.80;62.90
38788;DHT22;24536;45.488;12.238;2022-07-04T07:14:27;29.80;62.60
38788;DHT22;24536;45.488;12.238;2022-07-04T07:16:54;29.90;62.40
38788;DHT22;24536;45.488;12.238;2022-07-04T07:19:19;29.90;62.20
38788;DHT22;24536;45.488;12.238;2022-07-04T07:21:45;29.90;61.70
38788;DHT22;24536;45.488;12.238;2022-07-04T07:24:11;30.00;61.00
38788;DHT22;24536;45.488;12.238;2022-07-04T07:26:36;30.00;60.50
38788;DHT22;24536;45.488;12.238;2022-07-04T07:29:02;30.00;59.60
38788;DHT22;24536;45.488;12.238;2022-07-04T07:31:28;30.10;60.20
38788;DHT22;24536;45.488;12.238;2022-07-04T07:33:54;30.10;60.00
38788;DHT22;24536;45.488;12.238;2022-07-04T07:36:19;30.20;60.20
38788;DHT22;24536;45.488;12.238;2022-07-04T07:38:45;30.20;59.80
38788;DHT22;24536;45.488;12.238;2022-07-04T07:41:11;30.30;58.90
38788;DHT22;24536;45.488;12.238;2022-07-04T07:43:37;30.30;58.60
38788;DHT22;24536;45.488;12.238;2022-07-04T07:46:08;30.40;58.60
38788;DHT22;24536;45.488;12.238;2022-07-04T07:48:34;30.40;58.30
38788;DHT22;24536;45.488;12.238;2022-07-04T07:50:59;30.40;58.10
38788;DHT22;24536;45.488;12.238;2022-07-04T07:53:25;30.50;57.30
38788;DHT22;24536;45.488;12.238;2022-07-04T07:55:51;30.60;57.80
38788;DHT22;24536;45.488;12.238;2022-07-04T07:58:17;30.60;57.50
38788;DHT22;24536;45.488;12.238;2022-07-04T08:00:45;30.70;57.70
38788;DHT22;24536;45.488;12.238;2022-07-04T08:03:11;30.80;57.60
38788;DHT22;24536;45.488;12.238;2022-07-04T08:05:55;30.80;57.60
38788;DHT22;24536;45.488;12.238;2022-07-04T08:08:20;30.90;57.70
38788;DHT22;24536;45.488;12.238;2022-07-04T08:10:48;30.90;57.70
38788;DHT22;24536;45.488;12.238;2022-07-04T08:13:14;31.00;57.60
38788;DHT22;24536;45.488;12.238;2022-07-04T08:15:40;31.00;57.90
38788;DHT22;24536;45.488;12.238;2022-07-04T08:18:05;31.10;57.30
38788;DHT22;24536;45.488;12.238;2022-07-04T08:20:31;31.10;57.40
38788;DHT22;24536;45.488;12.238;2022-07-04T08:22:57;31.20;57.50
38788;DHT22;24536;45.488;12.238;2022-07-04T08:25:23;31.20;57.10
38788;DHT22;24536;45.488;12.238;2022-07-04T08:27:49;31.20;56.90
38788;DHT22;24536;45.488;12.238;2022-07-04T08:30:15;31.30;57.50
38788;DHT22;24536;45.488;12.238;2022-07-04T08:32:40;31.40;57.00
38788;DHT22;24536;45.488;12.238;2022-07-04T08:35:06;31.40;57.20
38788;DHT22;24536;45.488;12.238;2022-07-04T08:37:32;31.40;56.70
38788;DHT22;24536;45.488;12.238;2022-07-04T08:39:57;31.50;56.90
38788;DHT22;24536;45.488;12.238;2022-07-04T08:42:23;31.60;56.50
38788;DHT22;24536;45.488;12.238;2022-07-04T08:44:51;31.60;56.10
38788;DHT22;24536;45.488;12.238;2022-07-04T08:47:21;31.70;55.60
38788;DHT22;24536;45.488;12.238;2022-07-04T08:52:56;31.70;55.10
38788;DHT22;24536;45.488;12.238;2022-07-04T08:55:25;31.90;54.30
38788;DHT22;24536;45.488;12.238;2022-07-04T08:58:10;31.90;55.00
38788;DHT22;24536;45.488;12.238;2022-07-04T09:00:58;32.00;55.10
38788;DHT22;24536;45.488;12.238;2022-07-04T09:03:25;32.10;52.70
38788;DHT22;24536;45.488;12.238;2022-07-04T09:05:51;32.20;53.30
38788;DHT22;24536;45.488;12.238;2022-07-04T09:08:17;32.20;53.50
38788;DHT22;24536;45.488;12.238;2022-07-04T09:10:43;32.30;53.10
38788;DHT22;24536;45.488;12.238;2022-07-04T09:13:10;32.40;52.60
38788;DHT22;24536;45.488;12.238;2022-07-04T09:15:37;32.40;51.60
38788;DHT22;24536;45.488;12.238;2022-07-04T09:18:03;32.50;51.40
38788;DHT22;24536;45.488;12.238;2022-07-04T09:20:32;32.60;51.50
38788;DHT22;24536;45.488;12.238;2022-07-04T09:22:58;32.60;50.30
38788;DHT22;24536;45.488;12.238;2022-07-04T09:25:25;32.70;50.90
38788;DHT22;24536;45.488;12.238;2022-07-04T09:27:55;32.80;50.50
38788;DHT22;24536;45.488;12.238;2022-07-04T09:30:24;32.80;51.00
38788;DHT22;24536;45.488;12.238;2022-07-04T09:32:51;32.90;51.10
38788;DHT22;24536;45.488;12.238;2022-07-04T09:35:25;33.00;50.90
38788;DHT22;24536;45.488;12.238;2022-07-04T09:37:53;33.00;51.10
38788;DHT22;24536;45.488;12.238;2022-07-04T09:40:34;33.10;50.70
38788;DHT22;24536;45.488;12.238;2022-07-04T09:43:20;33.20;49.20
38788;DHT22;24536;45.488;12.238;2022-07-04T09:45:57;33.30;49.60
38788;DHT22;24536;45.488;12.238;2022-07-04T09:48:23;33.40;50.40
38788;DHT22;24536;45.488;12.238;2022-07-04T09:50:52;33.50;50.30
38788;DHT22;24536;45.488;12.238;2022-07-04T09:53:18;33.60;49.90
38788;DHT22;24536;45.488;12.238;2022-07-04T09:55:44;33.70;49.90
38788;DHT22;24536;45.488;12.238;2022-07-04T09:58:15;33.80;50.00
38788;DHT22;24536;45.488;12.238;2022-07-04T10:00:43;33.90;49.00
38788;DHT22;24536;45.488;12.238;2022-07-04T10:03:26;34.00;49.20
38788;DHT22;24536;45.488;12.238;2022-07-04T10:06:13;34.10;47.80
38788;DHT22;24536;45.488;12.238;2022-07-04T10:08:42;34.20;47.20
38788;DHT22;24536;45.488;12.238;2022-07-04T10:11:08;34.20;47.50
38788;DHT22;24536;45.488;12.238;2022-07-04T10:13:34;34.30;47.60
38788;DHT22;24536;45.488;12.238;2022-07-04T10:16:00;34.30;47.60
38788;DHT22;24536;45.488;12.238;2022-07-04T10:18:27;34.50;47.70
38788;DHT22;24536;45.488;12.238;2022-07-04T10:20:53;34.60;46.60
38788;DHT22;24536;45.488;12.238;2022-07-04T10:23:21;34.70;46.40
38788;DHT22;24536;45.488;12.238;2022-07-04T10:25:52;34.80;45.90
38788;DHT22;24536;45.488;12.238;2022-07-04T10:28:19;34.90;45.10
38788;DHT22;24536;45.488;12.238;2022-07-04T10:30:57;34.90;45.30
38788;DHT22;24536;45.488;12.238;2022-07-04T10:33:27;34.90;45.00
38788;DHT22;24536;45.488;12.238;2022-07-04T10:35:59;34.90;45.70
38788;DHT22;24536;45.488;12.238;2022-07-04T10:38:32;35.00;45.70
38788;DHT22;24536;45.488;12.238;2022-07-04T10:41:01;35.00;45.50
38788;DHT22;24536;45.488;12.238;2022-07-04T10:48:54;35.00;45.00
38788;DHT22;24536;45.488;12.238;2022-07-04T10:54:03;35.00;42.70
38788;DHT22;24536;45.488;12.238;2022-07-04T10:58:55;35.10;43.40
38788;DHT22;24536;45.488;12.238;2022-07-04T11:01:24;35.20;43.30
38788;DHT22;24536;45.488;12.238;2022-07-04T11:03:52;35.20;44.00
38788;DHT22;24536;45.488;12.238;2022-07-04T11:09:16;35.60;43.40
38788;DHT22;24536;45.488;12.238;2022-07-04T11:19:33;36.20;43.30
38788;DHT22;24536;45.488;12.238;2022-07-04T11:21:59;36.40;43.30
38788;DHT22;24536;45.488;12.238;2022-07-04T11:24:25;36.50;41.50
38788;DHT22;24536;45.488;12.238;2022-07-04T11:26:51;36.70;42.50
38788;DHT22;24536;45.488;12.238;2022-07-04T11:29:18;37.00;42.00
38788;DHT22;24536;45.488;12.238;2022-07-04T11:31:46;37.10;41.40
38788;DHT22;24536;45.488;12.238;2022-07-04T11:34:12;37.20;40.80
38788;DHT22;24536;45.488;12.238;2022-07-04T11:36:40;37.20;40.80
38788;DHT22;24536;45.488;12.238;2022-07-04T11:39:15;37.10;41.20
38788;DHT22;24536;45.488;12.238;2022-07-04T11:41:51;36.90;40.80
38788;DHT22;24536;45.488;12.238;2022-07-04T11:44:40;36.70;40.40
38788;DHT22;24536;45.488;12.238;2022-07-04T11:47:34;36.60;40.50
38788;DHT22;24536;45.488;12.238;2022-07-04T11:50:02;36.50;41.10
38788;DHT22;24536;45.488;12.238;2022-07-04T11:52:30;36.40;41.40
38788;DHT22;24536;45.488;12.238;2022-07-04T11:54:56;36.50;41.60
38788;DHT22;24536;45.488;12.238;2022-07-04T11:57:28;36.50;41.40
38788;DHT22;24536;45.488;12.238;2022-07-04T12:00:10;36.70;41.30
38788;DHT22;24536;45.488;12.238;2022-07-04T12:02:37;36.80;40.80
38788;DHT22;24536;45.488;12.238;2022-07-04T12:05:05;36.90;41.20
38788;DHT22;24536;45.488;12.238;2022-07-04T12:07:34;36.90;40.60
38788;DHT22;24536;45.488;12.238;2022-07-04T12:12:54;36.80;39.60
38788;DHT22;24536;45.488;12.238;2022-07-04T12:15:22;36.60;40.10
38788;DHT22;24536;45.488;12.238;2022-07-04T12:17:53;36.40;39.50
38788;DHT22;24536;45.488;12.238;2022-07-04T12:20:23;36.30;40.20
38788;DHT22;24536;45.488;12.238;2022-07-04T12:25:29;36.00;40.50
38788;DHT22;24536;45.488;12.238;2022-07-04T12:27:59;35.90;40.50
38788;DHT22;24536;45.488;12.238;2022-07-04T12:30:26;35.80;40.40
38788;DHT22;24536;45.488;12.238;2022-07-04T12:32:56;35.70;40.50
38788;DHT22;24536;45.488;12.238;2022-07-04T12:38:09;35.60;39.30
38788;DHT22;24536;45.488;12.238;2022-07-04T12:40:36;35.60;39.70
38788;DHT22;24536;45.488;12.238;2022-07-04T12:43:05;35.60;39.90
38788;DHT22;24536;45.488;12.238;2022-07-04T12:45:47;35.50;40.30
38788;DHT22;24536;45.488;12.238;2022-07-04T12:48:31;35.60;40.90
38788;DHT22;24536;45.488;12.238;2022-07-04T12:53:43;35.80;39.60
38788;DHT22;24536;45.488;12.238;2022-07-04T12:56:10;35.70;39.70
38788;DHT22;24536;45.488;12.238;2022-07-04T12:58:36;35.70;40.10
38788;DHT22;24536;45.488;12.238;2022-07-04T13:01:03;35.70;40.20
38788;DHT22;24536;45.488;12.238;2022-07-04T13:03:28;35.70;38.80
38788;DHT22;24536;45.488;12.238;2022-07-04T13:05:54;35.70;38.70
38788;DHT22;24536;45.488;12.238;2022-07-04T13:08:22;35.70;38.20
38788;DHT22;24536;45.488;12.238;2022-07-04T13:10:49;35.70;38.10
38788;DHT22;24536;45.488;12.238;2022-07-04T13:13:35;35.80;37.60
38788;DHT22;24536;45.488;12.238;2022-07-04T13:16:00;35.90;37.80
38788;DHT22;24536;45.488;12.238;2022-07-04T13:18:26;36.00;37.80
38788;DHT22;24536;45.488;12.238;2022-07-04T13:20:52;36.10;37.70
38788;DHT22;24536;45.488;12.238;2022-07-04T13:23:17;36.30;37.20
38788;DHT22;24536;45.488;12.238;2022-07-04T13:25:43;36.30;37.20
38788;DHT22;24536;45.488;12.238;2022-07-04T13:28:09;36.60;37.20
38788;DHT22;24536;45.488;12.238;2022-07-04T13:30:34;37.00;37.40
38788;DHT22;24536;45.488;12.238;2022-07-04T13:33:00;37.40;37.70
38788;DHT22;24536;45.488;12.238;2022-07-04T13:35:26;37.80;38.50
38788;DHT22;24536;45.488;12.238;2022-07-04T13:37:51;38.10;38.60
38788;DHT22;24536;45.488;12.238;2022-07-04T13:40:17;38.10;37.70
38788;DHT22;24536;45.488;12.238;2022-07-04T13:42:43;38.10;37.90
38788;DHT22;24536;45.488;12.238;2022-07-04T13:45:28;37.90;38.00
38788;DHT22;24536;45.488;12.238;2022-07-04T13:47:54;37.30;38.20
38788;DHT22;24536;45.488;12.238;2022-07-04T13:50:21;37.20;38.60
38788;DHT22;24536;45.488;12.238;2022-07-04T13:52:47;37.30;38.80
38788;DHT22;24536;45.488;12.238;2022-07-04T13:55:13;37.50;38.30
38788;DHT22;24536;45.488;12.238;2022-07-04T13:57:39;37.60;38.60
38788;DHT22;24536;45.488;12.238;2022-07-04T14:00:06;37.70;39.00
38788;DHT22;24536;45.488;12.238;2022-07-04T14:02:33;37.80;38.40
38788;DHT22;24536;45.488;12.238;2022-07-04T14:04:59;37.80;38.70
38788;DHT22;24536;45.488;12.238;2022-07-04T14:07:24;37.90;38.50
38788;DHT22;24536;45.488;12.238;2022-07-04T14:09:50;37.90;37.20
38788;DHT22;24536;45.488;12.238;2022-07-04T14:12:16;37.80;37.80
38788;DHT22;24536;45.488;12.238;2022-07-04T14:14:42;37.70;37.40
38788;DHT22;24536;45.488;12.238;2022-07-04T14:17:08;37.80;37.90
38788;DHT22;24536;45.488;12.238;2022-07-04T14:19:34;37.90;37.90
38788;DHT22;24536;45.488;12.238;2022-07-04T14:22:00;37.90;38.00
38788;DHT22;24536;45.488;12.238;2022-07-04T14:24:26;37.90;37.50
38788;DHT22;24536;45.488;12.238;2022-07-04T14:26:52;37.90;37.80
38788;DHT22;24536;45.488;12.238;2022-07-04T14:29:18;37.90;37.00
38788;DHT22;24536;45.488;12.238;2022-07-04T14:31:44;37.80;37.50
38788;DHT22;24536;45.488;12.238;2022-07-04T14:34:10;37.70;37.50
38788;DHT22;24536;45.488;12.238;2022-07-04T14:36:38;37.70;37.50
38788;DHT22;24536;45.488;12.238;2022-07-04T14:39:04;37.70;37.80
38788;DHT22;24536;45.488;12.238;2022-07-04T14:41:30;37.60;37.80
38788;DHT22;24536;45.488;12.238;2022-07-04T14:43:56;37.60;37.60
38788;DHT22;24536;45.488;12.238;2022-07-04T14:46:22;37.40;36.10
38788;DHT22;24536;45.488;12.238;2022-07-04T14:48:47;37.20;37.10
38788;DHT22;24536;45.488;12.238;2022-07-04T14:51:13;37.20;37.20
38788;DHT22;24536;45.488;12.238;2022-07-04T14:53:39;37.20;37.80
38788;DHT22;24536;45.488;12.238;2022-07-04T14:56:05;37.10;37.60
38788;DHT22;24536;45.488;12.238;2022-07-04T14:58:31;37.00;37.90
38788;DHT22;24536;45.488;12.238;2022-07-04T15:00:57;37.00;38.10
38788;DHT22;24536;45.488;12.238;2022-07-04T15:03:23;36.90;38.10
38788;DHT22;24536;45.488;12.238;2022-07-04T15:05:49;36.80;38.00
38788;DHT22;24536;45.488;12.238;2022-07-04T15:08:14;36.80;37.50
38788;DHT22;24536;45.488;12.238;2022-07-04T15:10:40;36.70;38.10
38788;DHT22;24536;45.488;12.238;2022-07-04T15:13:06;36.70;38.20
38788;DHT22;24536;45.488;12.238;2022-07-04T15:15:32;36.60;37.90
38788;DHT22;24536;45.488;12.238;2022-07-04T15:17:58;36.50;38.40
38788;DHT22;24536;45.488;12.238;2022-07-04T15:20:24;36.50;38.90
38788;DHT22;24536;45.488;12.238;2022-07-04T15:23:08;36.50;39.00
38788;DHT22;24536;45.488;12.238;2022-07-04T15:25:52;36.50;38.60
38788;DHT22;24536;45.488;12.238;2022-07-04T15:28:18;36.40;38.70
38788;DHT22;24536;45.488;12.238;2022-07-04T15:30:43;36.40;38.80
38788;DHT22;24536;45.488;12.238;2022-07-04T15:33:09;36.40;39.10
38788;DHT22;24536;45.488;12.238;2022-07-04T15:35:43;36.40;39.00
38788;DHT22;24536;45.488;12.238;2022-07-04T15:38:09;36.40;38.80
38788;DHT22;24536;45.488;12.238;2022-07-04T15:40:35;36.40;38.40
38788;DHT22;24536;45.488;12.238;2022-07-04T15:43:02;36.30;38.60
38788;DHT22;24536;45.488;12.238;2022-07-04T15:45:27;36.30;38.70
38788;DHT22;24536;45.488;12.238;2022-07-04T15:47:53;36.30;38.60
38788;DHT22;24536;45.488;12.238;2022-07-04T15:50:19;36.30;38.70
38788;DHT22;24536;45.488;12.238;2022-07-04T15:52:44;36.30;39.30
38788;DHT22;24536;45.488;12.238;2022-07-04T15:55:10;36.30;38.90